Etusivu
METAR-TAF:

METAR-TAF

Lentoasemat :

South Alabama Regional Airport

Andalusia, Alabama, Yhdysvallat

Leveyspiiri: 31-18-00N, Pituuspiiri: 086-23-00W, korkeus merenpinnasta: 94 m

Tämänhetkinen sää

Tämä raportti tehtiin 33 minuuttia sitten, kello 11.56 UTC
Tuuli 4 kn idästä/kaakosta
Lämpötila 14°C
Kosteus 63%
Ilmanpaine 1016 hPa
Näkyvyys: 16.1 km
Hajonneita pilviä 2700 ft:n korkeudessa
Pilvistä 3300 ft:n korkeudessa

METAR: K79J 241156Z AUTO 11004KT 10SM BKN027 OVC033 14/07 A3000 RMK AO2 SLP158 T01390067 10139 20128 58007 $

Aika: 06:29 (12:29 UTC)


TAF: puuttuu

Säähavainnot ja -ennusteet yli 4000 lentoasemalta (METAR- ja TAF-raportit).

Käytössä olevat sääasemat on merkitty karttaan keltaisilla ja punaisilla pisteillä.

Aseta hiiri pisteen päälle nähdäksesi sääaseman nimen.

Klikkaa sitten nähdäksesi säähavainnot ja -ennusteet.

Kartan vaihtaminen: klikkaa mustalla rastilla varustettuja vihreitä pisteitä, niin voit zoomata sisään; viivalla varustettua vihreää pistettä, niin voit zoomata ulos tai vihreitä nuolia, niin pääset viereisille kartoille.


METAR-TAF: